Time;durP1;ratioP1;P1;durP2;ratioP2;P2;SDS_P1;SDS_P2;PMS_P1;PMS_P2;Temp;Humidity;BMP_temperature;BMP_pressure;BME280_temperature;BME280_humidity;BME280_pressure;Samples;Min_cycle;Max_cycle;Signal;HPM_P1;HPM_P2
2022/09/08 00:01:12;;;;;;;1.73;0.50;;;19.80;75.60;;;;;;5057546;28;20083;-79
2022/09/08 00:03:39;;;;;;;1.60;0.52;;;19.80;75.60;;;;;;5046288;28;20131;-80
2022/09/08 00:06:12;;;;;;;0.88;0.40;;;19.80;75.60;;;;;;5035254;28;20064;-80
2022/09/08 00:08:40;;;;;;;3.42;0.60;;;19.80;75.60;;;;;;5097956;28;20081;-79
2022/09/08 00:11:09;;;;;;;1.60;0.60;;;19.80;75.60;;;;;;5046980;28;20039;-79
2022/09/08 00:13:39;;;;;;;2.05;0.40;;;19.80;75.70;;;;;;5067951;28;20147;-80
2022/09/08 00:16:07;;;;;;;2.35;0.50;;;19.80;75.80;;;;;;5072777;28;20040;-79
2022/09/08 00:18:38;;;;;;;4.70;0.50;;;19.80;75.90;;;;;;5061960;28;20052;-79
2022/09/08 00:21:05;;;;;;;1.30;0.30;;;19.80;75.90;;;;;;5046578;28;20140;-80
2022/09/08 00:23:32;;;;;;;0.88;0.40;;;19.70;76.10;;;;;;5048687;28;20131;-80
2022/09/08 00:25:59;;;;;;;0.88;0.40;;;19.70;76.20;;;;;;5050289;28;20067;-80
2022/09/08 00:28:26;;;;;;;1.90;0.50;;;19.60;76.30;;;;;;5064038;28;20049;-80
2022/09/08 00:30:56;;;;;;;1.45;0.50;;;19.60;76.50;;;;;;5031035;28;20049;-80
2022/09/08 00:33:23;;;;;;;1.52;0.63;;;19.50;76.70;;;;;;5041873;28;20071;-80
2022/09/08 00:35:51;;;;;;;1.75;0.60;;;19.40;76.90;;;;;;5011839;28;20036;-80
2022/09/08 00:38:19;;;;;;;1.50;0.50;;;19.40;77.30;;;;;;5058396;28;20121;-81
2022/09/08 00:40:51;;;;;;;2.10;0.60;;;19.40;77.50;;;;;;5031274;28;20135;-81
2022/09/08 00:43:37;;;;;;;2.17;0.60;;;19.40;77.80;;;;;;5059736;28;20060;-81
2022/09/08 00:46:14;;;;;;;1.55;0.63;;;19.30;78.00;;;;;;5051409;28;20142;-81
2022/09/08 00:49:04;;;;;;;1.30;0.60;;;19.30;78.20;;;;;;5062332;28;20040;-81
2022/09/08 00:51:32;;;;;;;2.80;0.68;;;19.30;78.50;;;;;;5051653;28;20392;-81
2022/09/08 00:54:01;;;;;;;1.55;0.68;;;19.20;78.70;;;;;;5052230;28;20055;-81
2022/09/08 00:56:29;;;;;;;2.45;0.80;;;19.20;79.60;;;;;;5070215;28;20037;-81
2022/09/08 00:58:57;;;;;;;1.55;0.70;;;19.20;79.20;;;;;;5068430;28;20043;-81
2022/09/08 01:01:24;;;;;;;1.45;0.50;;;19.20;79.30;;;;;;5062637;28;20049;-81
2022/09/08 01:03:52;;;;;;;2.30;0.60;;;19.20;79.50;;;;;;5043054;28;20044;-81
2022/09/08 01:15:11;;;;;;;2.05;0.50;;;19.10;80.00;;;;;;5062658;28;20079;-81
2022/09/08 01:17:38;;;;;;;1.48;0.50;;;19.10;80.10;;;;;;5050970;28;20131;-81
2022/09/08 01:20:09;;;;;;;1.52;0.50;;;19.10;80.20;;;;;;5026388;28;20076;-81
2022/09/08 01:22:55;;;;;;;1.95;0.50;;;19.10;80.30;;;;;;5030045;28;20139;-80
2022/09/08 01:25:47;;;;;;;1.33;0.43;;;19.10;80.40;;;;;;5070775;28;20048;-81
2022/09/08 01:28:24;;;;;;;2.70;0.73;;;19.10;80.60;;;;;;5060654;28;20127;-81
2022/09/08 01:30:53;;;;;;;1.88;0.55;;;19.10;80.60;;;;;;5069223;28;20082;-81
2022/09/08 01:33:21;;;;;;;1.65;0.40;;;19.10;80.70;;;;;;5041899;28;20040;-81
2022/09/08 01:35:49;;;;;;;1.55;0.50;;;19.10;80.80;;;;;;5048877;28;20072;-82
2022/09/08 01:38:16;;;;;;;1.70;0.60;;;19.10;80.90;;;;;;5059495;28;20084;-81
2022/09/08 01:40:43;;;;;;;2.13;0.60;;;19.10;80.90;;;;;;5048134;28;20093;-81
2022/09/08 01:43:10;;;;;;;0.85;0.43;;;19.10;80.90;;;;;;5059127;28;20048;-80
2022/09/08 01:45:39;;;;;;;1.95;0.60;;;19.10;81.00;;;;;;5027227;28;20107;-80
2022/09/08 01:48:07;;;;;;;1.10;0.35;;;19.10;81.20;;;;;;5064819;28;20488;-80
2022/09/08 01:50:36;;;;;;;0.90;0.40;;;19.00;81.40;;;;;;5055560;28;20561;-81
2022/09/08 01:53:03;;;;;;;2.63;0.50;;;19.00;81.50;;;;;;5058745;28;20037;-80
2022/09/08 01:55:30;;;;;;;2.20;0.60;;;18.90;81.70;;;;;;5026585;28;20052;-81
2022/09/08 01:57:57;;;;;;;1.05;0.40;;;18.90;82.00;;;;;;5061530;28;20068;-81
2022/09/08 02:00:24;;;;;;;3.05;0.60;;;18.80;82.30;;;;;;5048054;28;20048;-82
2022/09/08 02:02:50;;;;;;;1.77;0.60;;;18.70;82.60;;;;;;5035735;28;20064;-81
2022/09/08 02:05:21;;;;;;;3.50;0.77;;;18.60;83.60;;;;;;5024576;28;20041;-81
2022/09/08 02:07:50;;;;;;;2.00;0.50;;;18.40;83.90;;;;;;5055531;28;20086;-81
2022/09/08 02:10:20;;;;;;;3.33;0.70;;;18.30;84.20;;;;;;5059152;28;20143;-81
2022/09/08 02:12:47;;;;;;;2.28;0.68;;;18.30;84.40;;;;;;5060231;28;20163;-80
2022/09/08 02:15:14;;;;;;;3.70;0.70;;;18.30;84.60;;;;;;5052840;28;20087;-81
2022/09/08 02:17:41;;;;;;;1.85;0.50;;;18.20;84.80;;;;;;5029692;28;20048;-81
2022/09/08 02:20:10;;;;;;;2.38;0.50;;;18.10;85.00;;;;;;5039748;28;20440;-81
2022/09/08 02:22:37;;;;;;;2.17;0.55;;;18.10;85.30;;;;;;5050223;28;20044;-80
2022/09/08 02:25:04;;;;;;;1.50;0.50;;;18.00;85.50;;;;;;5080426;28;20032;-81
2022/09/08 02:27:31;;;;;;;2.45;0.50;;;17.90;85.60;;;;;;5025817;28;20040;-80
2022/09/08 02:29:58;;;;;;;2.58;0.70;;;17.90;85.90;;;;;;5023040;28;20044;-80
2022/09/08 02:32:25;;;;;;;1.70;0.60;;;17.80;86.00;;;;;;5047489;28;20045;-79
2022/09/08 02:34:52;;;;;;;2.05;0.57;;;17.80;86.10;;;;;;5041931;28;20077;-79
2022/09/08 02:37:19;;;;;;;3.58;0.80;;;17.80;86.30;;;;;;5058841;28;20055;-79
2022/09/08 02:39:47;;;;;;;3.08;0.60;;;17.80;86.50;;;;;;5041859;28;20355;-80
2022/09/08 02:42:14;;;;;;;2.00;0.50;;;17.80;86.50;;;;;;5038817;28;20045;-80
2022/09/08 02:44:41;;;;;;;2.88;0.60;;;17.70;86.60;;;;;;5032876;28;20056;-80
2022/09/08 02:47:08;;;;;;;1.75;0.45;;;17.70;86.70;;;;;;5054876;28;20048;-80
2022/09/08 02:49:35;;;;;;;3.47;0.63;;;17.80;87.20;;;;;;5050641;28;20044;-80
2022/09/08 02:52:02;;;;;;;1.83;0.65;;;17.70;87.00;;;;;;5057729;28;20138;-80
2022/09/08 02:54:29;;;;;;;2.17;0.70;;;17.70;87.00;;;;;;5032472;28;20127;-79
2022/09/08 02:56:56;;;;;;;1.50;0.57;;;17.70;87.10;;;;;;5056073;28;20143;-80
2022/09/08 02:59:23;;;;;;;1.70;0.50;;;17.70;87.10;;;;;;5023233;28;20063;-80
2022/09/08 03:01:50;;;;;;;1.92;0.63;;;17.70;87.20;;;;;;5037759;28;20415;-80
2022/09/08 03:04:18;;;;;;;1.95;0.60;;;17.70;87.30;;;;;;5058508;28;20093;-80
2022/09/08 03:06:45;;;;;;;3.03;0.77;;;17.60;87.50;;;;;;5040662;28;20052;-79
2022/09/08 03:09:16;;;;;;;1.63;0.43;;;17.60;87.50;;;;;;5078192;28;20484;-80
2022/09/08 03:11:43;;;;;;;3.30;0.70;;;17.60;87.50;;;;;;5060277;28;20048;-80
2022/09/08 03:14:13;;;;;;;1.63;0.60;;;17.70;87.50;;;;;;5053262;28;20402;-80
2022/09/08 03:16:40;;;;;;;2.80;0.80;;;17.70;87.60;;;;;;5037573;28;20036;-80
2022/09/08 03:19:08;;;;;;;1.75;0.50;;;17.60;87.60;;;;;;5038746;28;20074;-80
2022/09/08 03:21:35;;;;;;;1.70;0.68;;;17.60;87.70;;;;;;5023181;28;20044;-80
2022/09/08 03:24:02;;;;;;;3.20;0.60;;;17.60;87.70;;;;;;5050217;28;20149;-80
2022/09/08 03:26:29;;;;;;;3.03;0.50;;;17.60;87.70;;;;;;5030857;28;20135;-80
2022/09/08 03:28:56;;;;;;;3.08;0.52;;;17.70;87.80;;;;;;5050272;28;20375;-80
2022/09/08 03:31:23;;;;;;;3.58;0.75;;;17.60;87.80;;;;;;5049332;28;20032;-80
2022/09/08 03:33:50;;;;;;;2.83;0.70;;;17.60;87.90;;;;;;5049057;28;20032;-80
2022/09/08 03:36:17;;;;;;;2.60;0.95;;;17.60;88.00;;;;;;5037373;28;20123;-80
2022/09/08 03:38:45;;;;;;;2.35;0.90;;;17.60;88.00;;;;;;5048326;28;20048;-81
2022/09/08 03:41:15;;;;;;;2.35;0.77;;;17.60;88.10;;;;;;5055228;28;20054;-81
2022/09/08 03:43:44;;;;;;;2.75;1.23;;;17.70;88.10;;;;;;5040901;28;20040;-80
2022/09/08 03:46:12;;;;;;;1.40;0.70;;;17.70;88.10;;;;;;5039778;28;20489;-80
2022/09/08 03:48:39;;;;;;;1.30;0.57;;;17.70;88.10;;;;;;5053861;28;20114;-80
2022/09/08 03:51:09;;;;;;;2.10;0.75;;;17.70;88.00;;;;;;5054153;28;20054;-81
2022/09/08 03:53:36;;;;;;;4.15;0.95;;;17.80;88.00;;;;;;5054966;28;20037;-81
2022/09/08 03:56:08;;;;;;;2.70;0.65;;;17.70;87.90;;;;;;5037243;28;20048;-80
2022/09/08 03:58:36;;;;;;;2.85;0.60;;;17.80;88.00;;;;;;5070613;28;20047;-80
2022/09/08 04:01:16;;;;;;;3.58;0.80;;;17.80;88.00;;;;;;5056024;28;20495;-80
2022/09/08 04:03:44;;;;;;;2.92;0.80;;;17.80;88.00;;;;;;5055107;28;20048;-80
2022/09/08 04:06:15;;;;;;;1.52;0.55;;;17.80;88.10;;;;;;5061158;28;20038;-80
2022/09/08 04:08:43;;;;;;;4.13;0.70;;;17.80;88.10;;;;;;5052388;28;20048;-80
2022/09/08 04:11:10;;;;;;;1.70;0.80;;;17.80;88.00;;;;;;5029405;28;20131;-80
2022/09/08 04:13:38;;;;;;;3.10;0.88;;;17.80;88.00;;;;;;5068871;28;20032;-82
2022/09/08 04:16:05;;;;;;;1.55;0.77;;;17.80;88.00;;;;;;5059755;28;20384;-80
2022/09/08 04:18:32;;;;;;;1.63;0.52;;;17.80;88.10;;;;;;5041428;28;20044;-81
2022/09/08 04:21:02;;;;;;;3.10;0.52;;;17.80;88.20;;;;;;5055742;28;20040;-80
2022/09/08 04:23:29;;;;;;;1.80;0.60;;;17.80;88.30;;;;;;5053623;28;20416;-77
2022/09/08 04:26:04;;;;;;;4.28;1.15;;;17.70;88.50;;;;;;5069497;28;20040;-78
2022/09/08 04:28:33;;;;;;;2.53;0.70;;;17.70;88.80;;;;;;5083681;28;20113;-82
2022/09/08 04:31:09;;;;;;;1.67;0.60;;;17.70;88.80;;;;;;5037152;28;20492;-83
2022/09/08 04:33:36;;;;;;;3.60;0.98;;;17.70;88.90;;;;;;5065955;28;20036;-83
2022/09/08 04:36:09;;;;;;;3.20;0.80;;;17.60;89.20;;;;;;5051929;28;20135;-81
2022/09/08 04:38:52;;;;;;;1.90;0.70;;;17.60;89.20;;;;;;5057386;28;20523;-82
2022/09/08 04:41:19;;;;;;;2.63;0.70;;;17.60;89.20;;;;;;5051074;28;20171;-83
2022/09/08 04:43:49;;;;;;;1.48;0.55;;;17.60;89.20;;;;;;5037979;28;20035;-82
2022/09/08 04:46:27;;;;;;;2.97;0.80;;;17.60;89.20;;;;;;5029212;28;20041;-82
2022/09/08 04:49:03;;;;;;;3.38;1.10;;;17.60;89.40;;;;;;5053443;28;20524;-79
2022/09/08 04:51:34;;;;;;;3.58;0.85;;;17.50;89.50;;;;;;5053868;28;20091;-83
2022/09/08 04:54:04;;;;;;;2.92;0.80;;;17.50;89.50;;;;;;5022150;28;20115;-82
2022/09/08 04:56:32;;;;;;;2.03;0.88;;;17.50;89.50;;;;;;5037389;28;20535;-79
2022/09/08 04:59:06;;;;;;;3.03;0.93;;;17.50;89.60;;;;;;5037880;28;20485;-83
2022/09/08 05:01:35;;;;;;;4.45;0.90;;;17.50;89.60;;;;;;5037554;28;20073;-82
2022/09/08 05:04:09;;;;;;;2.08;0.90;;;17.40;89.90;;;;;;5055863;28;20036;-82
2022/09/08 05:06:49;;;;;;;2.15;0.90;;;17.40;90.00;;;;;;5070999;28;20530;-82
2022/09/08 05:09:16;;;;;;;2.17;0.70;;;17.30;90.00;;;;;;5058694;28;20094;-82
2022/09/08 05:11:45;;;;;;;2.75;0.90;;;17.30;90.00;;;;;;5071858;28;20430;-82
2022/09/08 05:14:16;;;;;;;2.40;0.70;;;17.30;90.00;;;;;;5063153;28;20054;-83
2022/09/08 05:17:07;;;;;;;3.58;1.00;;;17.30;90.00;;;;;;5043344;28;20044;-82
2022/09/08 05:19:49;;;;;;;3.65;1.00;;;17.30;90.10;;;;;;5062470;28;20037;-81
2022/09/08 05:22:17;;;;;;;2.95;0.70;;;17.40;90.10;;;;;;5053115;28;20745;-81
2022/09/08 05:24:44;;;;;;;2.90;0.90;;;17.40;90.10;;;;;;5053171;28;20045;-81
2022/09/08 05:27:11;;;;;;;2.97;0.90;;;17.40;90.10;;;;;;5046036;28;20076;-81
2022/09/08 05:29:38;;;;;;;2.20;1.00;;;17.40;90.10;;;;;;5056367;28;20036;-82
2022/09/08 05:32:05;;;;;;;3.40;1.23;;;17.40;90.10;;;;;;5036748;28;20627;-77
2022/09/08 05:34:32;;;;;;;1.90;0.82;;;17.40;90.20;;;;;;5072770;28;20037;-78
2022/09/08 05:36:59;;;;;;;2.45;0.98;;;17.40;90.20;;;;;;5053207;28;20041;-77
2022/09/08 05:39:26;;;;;;;2.03;0.93;;;17.40;90.30;;;;;;5036408;28;20131;-78
2022/09/08 05:41:53;;;;;;;3.08;0.90;;;17.40;90.30;;;;;;5038321;28;20123;-86
2022/09/08 05:44:20;;;;;;;3.83;1.20;;;17.20;90.30;;;;;;5016727;28;20096;-79
2022/09/08 05:46:47;;;;;;;3.63;1.63;;;17.20;90.50;;;;;;5050673;28;20136;-78
2022/09/08 05:49:13;;;;;;;2.88;1.20;;;17.10;90.60;;;;;;5032449;28;20411;-81
2022/09/08 05:51:42;;;;;;;3.97;1.60;;;17.00;90.80;;;;;;5030124;28;20075;-80
2022/09/08 05:54:09;;;;;;;4.50;1.83;;;16.90;90.80;;;;;;5033058;28;20444;-83
2022/09/08 05:56:36;;;;;;;4.60;2.00;;;16.90;91.00;;;;;;5014150;28;20136;-80
2022/09/08 05:59:02;;;;;;;3.47;1.60;;;16.90;91.30;;;;;;5047419;28;20033;-80
2022/09/08 06:01:31;;;;;;;2.60;1.63;;;16.80;91.10;;;;;;5021510;28;20524;-81
2022/09/08 06:03:59;;;;;;;5.10;1.85;;;16.80;91.10;;;;;;5032604;28;20055;-79
2022/09/08 06:06:27;;;;;;;4.63;2.28;;;16.80;91.20;;;;;;5048915;28;20049;-79
2022/09/08 06:08:55;;;;;;;4.28;2.17;;;16.80;91.40;;;;;;5047413;28;20056;-79
2022/09/08 06:11:23;;;;;;;4.53;1.73;;;16.80;91.50;;;;;;5052061;28;20123;-79
2022/09/08 06:13:51;;;;;;;4.28;2.20;;;16.70;91.40;;;;;;5005573;28;20042;-79
2022/09/08 06:16:18;;;;;;;3.75;1.92;;;16.70;91.50;;;;;;5058515;28;20036;-80
2022/09/08 06:18:46;;;;;;;5.97;2.70;;;16.80;91.50;;;;;;5036593;28;20057;-80
2022/09/08 06:21:19;;;;;;;7.47;2.47;;;16.80;91.50;;;;;;5048468;28;20536;-80
2022/09/08 06:23:51;;;;;;;4.88;2.50;;;16.70;91.50;;;;;;5031968;28;20215;-80
2022/09/08 06:26:42;;;;;;;5.72;2.85;;;16.70;91.60;;;;;;5016109;28;20137;-80
2022/09/08 06:29:21;;;;;;;8.32;2.88;;;16.70;91.70;;;;;;5033737;28;20881;-80
2022/09/08 06:31:55;;;;;;;5.28;2.30;;;16.70;91.70;;;;;;5046748;28;20045;-80
2022/09/08 06:34:29;;;;;;;5.30;2.03;;;16.80;91.70;;;;;;5064987;28;20048;-80
2022/09/08 06:37:04;;;;;;;4.85;2.15;;;16.80;91.70;;;;;;5067212;28;20064;-80
2022/09/08 06:39:45;;;;;;;4.07;1.73;;;16.90;91.70;;;;;;5040664;28;20046;-80
2022/09/08 06:42:47;;;;;;;5.07;1.50;;;16.90;91.60;;;;;;5060310;28;20056;-80
2022/09/08 06:45:22;;;;;;;3.72;1.63;;;17.00;91.60;;;;;;5055525;28;20048;-80
2022/09/08 06:48:15;;;;;;;3.97;1.35;;;17.00;91.60;;;;;;5074067;28;20485;-80
2022/09/08 06:50:57;;;;;;;3.00;1.40;;;17.00;91.60;;;;;;5056327;28;20044;-80
2022/09/08 06:53:34;;;;;;;3.85;1.50;;;17.10;91.60;;;;;;5056291;28;20132;-80
2022/09/08 06:56:26;;;;;;;2.97;1.20;;;17.10;91.60;;;;;;5080409;28;20051;-80
2022/09/08 06:59:22;;;;;;;3.10;1.42;;;17.20;91.50;;;;;;5065978;28;20051;-80
2022/09/08 07:02:07;;;;;;;3.30;1.50;;;17.20;91.50;;;;;;5044509;28;20131;-80
2022/09/08 07:04:34;;;;;;;;;;;17.20;91.50;;;;;;5056860;28;20043;-80
2022/09/08 07:07:18;;;;;;;3.35;1.40;;;17.10;91.50;;;;;;5056195;28;19927;-80
2022/09/08 07:10:01;;;;;;;2.70;1.20;;;17.10;91.60;;;;;;5054872;28;20055;-80
2022/09/08 07:13:03;;;;;;;2.72;1.08;;;17.20;91.60;;;;;;5062646;28;20040;-80
2022/09/08 07:15:47;;;;;;;3.75;1.20;;;17.20;91.50;;;;;;5061590;28;20127;-80
2022/09/08 07:18:35;;;;;;;2.90;1.17;;;17.20;91.50;;;;;;5055765;28;20047;-80
2022/09/08 07:21:26;;;;;;;3.40;1.23;;;17.20;91.50;;;;;;5042292;28;20131;-79
2022/09/08 07:23:55;;;;;;;4.22;1.50;;;17.20;91.50;;;;;;5042789;28;20463;-78
2022/09/08 07:26:37;;;;;;;3.80;1.20;;;17.20;91.60;;;;;;5048568;28;20078;-78
2022/09/08 07:29:33;;;;;;;2.85;1.38;;;17.20;91.80;;;;;;5072036;28;20546;-78
2022/09/08 07:32:02;;;;;;;3.55;1.20;;;17.20;91.60;;;;;;5039518;28;20059;-78
2022/09/08 07:34:35;;;;;;;4.78;1.33;;;17.20;91.60;;;;;;5065799;28;20044;-78
2022/09/08 07:37:23;;;;;;;3.30;1.48;;;17.20;91.60;;;;;;5072107;28;20090;-78
2022/09/08 07:40:04;;;;;;;3.60;1.70;;;17.30;91.60;;;;;;5091466;28;20089;-78
2022/09/08 07:42:31;;;;;;;4.13;1.70;;;17.30;91.60;;;;;;5060698;28;20051;-77
2022/09/08 07:45:00;;;;;;;3.58;1.55;;;17.30;91.70;;;;;;5033498;28;20044;-78
2022/09/08 07:47:51;;;;;;;2.55;1.30;;;17.30;91.60;;;;;;5064131;28;20126;-78
2022/09/08 07:50:56;;;;;;;2.45;1.40;;;17.30;91.60;;;;;;5070774;28;20041;-79
2022/09/08 07:53:40;;;;;;;3.17;1.30;;;17.30;91.60;;;;;;5040253;28;20048;-79
2022/09/08 07:56:14;;;;;;;2.97;1.30;;;17.30;91.60;;;;;;5056765;28;20128;-79
2022/09/08 07:59:10;;;;;;;3.50;1.40;;;17.30;91.50;;;;;;5056956;28;20063;-79
2022/09/08 08:02:00;;;;;;;3.60;1.30;;;17.30;91.60;;;;;;5042036;28;20098;-78
2022/09/08 08:04:46;;;;;;;2.80;0.85;;;17.30;91.60;;;;;;5056643;28;20378;-79
2022/09/08 08:07:22;;;;;;;3.33;1.10;;;17.30;91.60;;;;;;5048745;28;20048;-78
2022/09/08 08:09:56;;;;;;;3.00;1.73;;;17.40;91.60;;;;;;5058252;28;20046;-78
2022/09/08 08:12:51;;;;;;;2.80;1.50;;;17.40;91.60;;;;;;5062666;28;20040;-77
2022/09/08 08:15:27;;;;;;;4.35;1.27;;;17.50;91.60;;;;;;5049862;28;20102;-78
2022/09/08 08:18:00;;;;;;;2.75;1.50;;;17.50;91.50;;;;;;5065066;28;20191;-78
2022/09/08 08:20:49;;;;;;;2.58;1.20;;;17.40;91.50;;;;;;5057597;28;20049;-78
2022/09/08 08:23:48;;;;;;;2.95;1.55;;;17.50;91.60;;;;;;5066008;28;20072;-78
2022/09/08 08:26:34;;;;;;;2.63;1.40;;;17.50;91.50;;;;;;5065684;28;20076;-78
2022/09/08 08:29:35;;;;;;;4.43;1.63;;;17.60;91.50;;;;;;5058598;28;20052;-77
2022/09/08 08:32:12;;;;;;;2.72;1.15;;;17.70;91.40;;;;;;5063553;28;20564;-77
2022/09/08 08:35:04;;;;;;;3.83;1.42;;;17.70;91.40;;;;;;5075241;28;20048;-77
2022/09/08 08:37:34;;;;;;;2.60;1.27;;;17.90;91.40;;;;;;5057570;28;20079;-77
2022/09/08 08:40:24;;;;;;;3.25;1.70;;;18.00;91.30;;;;;;5057405;28;20028;-77
2022/09/08 08:43:10;;;;;;;2.55;1.40;;;18.20;91.10;;;;;;5072694;28;20044;-78
2022/09/08 08:46:01;;;;;;;4.88;2.30;;;18.20;91.10;;;;;;5040406;28;20053;-78
2022/09/08 08:48:57;;;;;;;3.28;2.10;;;18.20;91.00;;;;;;5062911;28;20044;-77
2022/09/08 08:51:33;;;;;;;3.92;2.30;;;18.20;91.10;;;;;;5057844;28;20056;-78
2022/09/08 08:54:25;;;;;;;3.20;1.83;;;18.30;91.10;;;;;;5076937;28;20032;-78
2022/09/08 08:57:11;;;;;;;;;;;18.50;91.00;;;;;;5057442;28;20037;-77
2022/09/08 08:59:57;;;;;;;2.83;1.67;;;18.50;90.80;;;;;;5059896;28;19927;-78
2022/09/08 09:02:52;;;;;;;4.00;2.42;;;18.70;90.70;;;;;;5061788;28;20052;-77
2022/09/08 09:05:32;;;;;;;4.65;2.40;;;18.80;90.60;;;;;;5072031;28;20094;-78
2022/09/08 09:08:24;;;;;;;4.07;2.17;;;18.80;90.70;;;;;;5067427;28;20048;-78
2022/09/08 09:11:09;;;;;;;3.80;1.92;;;18.90;90.60;;;;;;5065110;28;20063;-78
2022/09/08 09:14:02;;;;;;;3.17;2.17;;;18.90;90.60;;;;;;5077453;28;20063;-78
2022/09/08 09:16:49;;;;;;;;;;;18.90;90.60;;;;;;5039364;28;20174;-78
2022/09/08 09:19:42;;;;;;;2.78;1.55;;;18.80;90.60;;;;;;5077498;28;19920;-78
2022/09/08 09:22:20;;;;;;;4.35;2.40;;;18.70;90.60;;;;;;5073712;28;20070;-78
2022/09/08 09:25:03;;;;;;;4.15;1.85;;;18.60;90.60;;;;;;5074247;28;20047;-78
2022/09/08 09:27:43;;;;;;;3.67;1.92;;;18.70;90.60;;;;;;5075603;28;20483;-78
2022/09/08 09:30:21;;;;;;;5.22;2.50;;;18.80;90.40;;;;;;5066889;28;20504;-78
2022/09/08 09:33:05;;;;;;;3.20;1.55;;;18.90;90.30;;;;;;5058486;28;20036;-78
2022/09/08 09:36:00;;;;;;;2.88;1.77;;;19.00;90.30;;;;;;5064844;28;20464;-78
2022/09/08 09:38:38;;;;;;;2.80;1.60;;;19.10;90.10;;;;;;5063575;28;20060;-78
2022/09/08 09:41:32;;;;;;;3.78;1.52;;;19.10;90.10;;;;;;5061168;28;20140;-79
2022/09/08 09:44:33;;;;;;;2.92;1.60;;;19.20;90.10;;;;;;5063659;28;20504;-79
2022/09/08 09:47:26;;;;;;;3.53;1.60;;;19.20;90.10;;;;;;5081935;28;20114;-78
2022/09/08 09:50:29;;;;;;;2.80;1.27;;;19.20;89.90;;;;;;5076447;28;20310;-78
2022/09/08 09:53:08;;;;;;;2.30;1.25;;;19.30;89.90;;;;;;5072062;28;20071;-78
2022/09/08 09:56:09;;;;;;;4.30;1.48;;;19.40;89.70;;;;;;5047235;28;20054;-78
2022/09/08 09:58:48;;;;;;;2.65;1.63;;;19.40;89.50;;;;;;5066039;28;20068;-78
2022/09/08 10:01:21;;;;;;;2.95;1.48;;;19.30;89.60;;;;;;5069542;28;20040;-78
2022/09/08 10:04:09;;;;;;;2.50;1.00;;;19.40;89.60;;;;;;5056525;28;20135;-78
2022/09/08 10:07:03;;;;;;;3.13;1.48;;;19.40;89.40;;;;;;5080592;28;20043;-79
2022/09/08 10:10:08;;;;;;;1.92;0.98;;;19.50;89.20;;;;;;5055354;28;20147;-79
2022/09/08 10:12:44;;;;;;;2.17;0.90;;;19.60;89.00;;;;;;5038792;28;20119;-78
2022/09/08 10:15:20;;;;;;;2.63;0.98;;;19.70;89.00;;;;;;5053170;28;20131;-79
2022/09/08 10:18:24;;;;;;;1.02;0.68;;;19.70;88.80;;;;;;5088123;28;20032;-79
2022/09/08 10:20:53;;;;;;;2.15;1.20;;;19.70;88.50;;;;;;5075086;28;20070;-79
2022/09/08 10:23:52;;;;;;;2.47;1.05;;;19.70;88.80;;;;;;5071949;28;20505;-79
2022/09/08 10:26:48;;;;;;;3.88;1.00;;;19.70;88.70;;;;;;5069786;28;20496;-79
2022/09/08 10:29:43;;;;;;;2.13;1.00;;;20.00;88.60;;;;;;5053067;28;20044;-79
2022/09/08 10:32:37;;;;;;;2.95;1.00;;;20.30;87.70;;;;;;5072035;28;20234;-79
2022/09/08 10:35:28;;;;;;;3.22;1.85;;;20.40;87.00;;;;;;5052189;28;20040;-79
2022/09/08 10:38:29;;;;;;;4.68;1.80;;;20.20;86.90;;;;;;5052138;28;20098;-80
2022/09/08 10:40:56;;;;;;;1.92;1.15;;;20.10;87.10;;;;;;5055208;28;20047;-80
2022/09/08 10:43:31;;;;;;;2.55;1.35;;;20.20;87.30;;;;;;5055912;28;20127;-80
2022/09/08 10:46:41;;;;;;;2.13;1.27;;;20.20;87.30;;;;;;5064982;28;20052;-79
2022/09/08 10:49:14;;;;;;;2.10;1.38;;;20.30;87.30;;;;;;5039972;28;20067;-79
2022/09/08 10:52:13;;;;;;;2.95;1.42;;;20.60;86.80;;;;;;5041758;28;20143;-79
2022/09/08 10:54:55;;;;;;;2.83;1.30;;;20.70;86.10;;;;;;5043235;28;20050;-80
2022/09/08 10:58:19;;;;;;;3.25;1.60;;;20.70;86.20;;;;;;5054592;28;20040;-81
2022/09/08 11:01:18;;;;;;;2.58;1.30;;;20.60;85.80;;;;;;5056809;28;20056;-78
2022/09/08 11:04:20;;;;;;;1.52;0.82;;;20.40;85.90;;;;;;5060491;28;20396;-77
2022/09/08 11:07:02;;;;;;;1.50;0.90;;;20.30;86.20;;;;;;5060741;28;20063;-78
2022/09/08 11:10:16;;;;;;;2.30;1.03;;;20.10;85.80;;;;;;5051637;28;20048;-77
2022/09/08 11:13:23;;;;;;;2.78;1.33;;;20.10;85.90;;;;;;5075129;28;20388;-80
2022/09/08 11:16:15;;;;;;;1.88;1.25;;;20.20;85.50;;;;;;5056472;28;20055;-81
2022/09/08 11:18:48;;;;;;;4.07;1.50;;;20.30;85.00;;;;;;5060114;28;20048;-81
2022/09/08 11:21:29;;;;;;;1.95;1.17;;;20.50;85.00;;;;;;5037581;28;20045;-81
2022/09/08 11:24:15;;;;;;;1.38;0.75;;;20.60;84.60;;;;;;5054503;28;20044;-79
2022/09/08 11:27:15;;;;;;;1.75;0.90;;;20.70;84.60;;;;;;5054205;28;20466;-81
2022/09/08 11:29:42;;;;;;;2.83;1.17;;;20.60;85.10;;;;;;5051046;28;20094;-83
2022/09/08 11:32:34;;;;;;;4.47;1.08;;;20.50;84.50;;;;;;5051824;28;20502;-83
2022/09/08 11:35:21;;;;;;;1.58;0.95;;;20.40;84.50;;;;;;5054055;28;20052;-81
2022/09/08 11:38:19;;;;;;;1.10;0.70;;;20.50;84.50;;;;;;5053114;28;20150;-82
2022/09/08 11:41:05;;;;;;;2.08;0.95;;;20.50;84.00;;;;;;5079851;28;20124;-85
2022/09/08 11:43:50;;;;;;;1.95;0.68;;;20.40;83.90;;;;;;5044181;28;20068;-85
2022/09/08 11:46:26;;;;;;;2.40;0.80;;;20.40;84.20;;;;;;5051141;28;20054;-80
2022/09/08 11:49:11;;;;;;;1.33;0.50;;;20.40;83.70;;;;;;5054008;28;20040;-79
2022/09/08 11:52:21;;;;;;;2.47;1.27;;;20.50;83.50;;;;;;5060121;28;20047;-78
2022/09/08 11:55:37;;;;;;;1.15;0.43;;;20.50;83.40;;;;;;5061488;28;20122;-78
2022/09/08 11:58:32;;;;;;;1.10;0.40;;;20.40;83.40;;;;;;5057535;28;20064;-78
2022/09/08 12:01:23;;;;;;;2.15;0.50;;;20.40;83.40;;;;;;5046185;28;20541;-78
2022/09/08 12:04:00;;;;;;;1.27;0.40;;;20.40;83.40;;;;;;5077210;28;20118;-77
2022/09/08 12:06:48;;;;;;;2.30;0.40;;;20.40;83.30;;;;;;5059472;28;20048;-77
2022/09/08 12:09:28;;;;;;;1.90;0.40;;;20.50;82.80;;;;;;5059932;28;20052;-77
2022/09/08 12:12:19;;;;;;;3.15;0.50;;;20.50;82.60;;;;;;5082710;28;20116;-77
2022/09/08 12:15:13;;;;;;;2.47;0.50;;;20.60;82.20;;;;;;5064636;28;20130;-78
2022/09/08 12:18:21;;;;;;;1.02;0.50;;;20.80;82.20;;;;;;5062936;28;20039;-78
2022/09/08 12:21:15;;;;;;;0.73;0.30;;;21.00;81.50;;;;;;5044561;28;20089;-79
2022/09/08 12:24:20;;;;;;;4.47;0.70;;;21.20;81.40;;;;;;5075988;28;20041;-79
2022/09/08 12:26:53;;;;;;;2.45;0.52;;;21.40;79.80;;;;;;5049399;28;20056;-79
2022/09/08 12:29:19;;;;;;;3.28;0.57;;;21.50;79.70;;;;;;5063172;28;20136;-79
2022/09/08 12:31:58;;;;;;;2.10;0.45;;;21.60;79.60;;;;;;5078921;28;20041;-78
2022/09/08 12:34:37;;;;;;;1.27;0.50;;;21.70;79.40;;;;;;5073702;28;20477;-78
2022/09/08 12:37:10;;;;;;;1.30;0.40;;;21.70;79.30;;;;;;5076571;28;20041;-78
2022/09/08 12:40:09;;;;;;;2.80;0.50;;;21.80;78.90;;;;;;5070500;28;20044;-79
2022/09/08 12:42:54;;;;;;;3.20;0.50;;;21.90;78.70;;;;;;5073462;28;20539;-79
2022/09/08 12:45:50;;;;;;;2.33;0.40;;;21.90;77.20;;;;;;5061846;28;20083;-79
2022/09/08 12:48:26;;;;;;;3.15;0.77;;;21.80;76.10;;;;;;5076909;28;20461;-79
2022/09/08 12:51:20;;;;;;;1.33;0.40;;;21.90;76.20;;;;;;5072181;28;20138;-79
2022/09/08 12:53:50;;;;;;;1.85;0.30;;;22.00;76.20;;;;;;5076315;28;20038;-79
2022/09/08 12:56:47;;;;;;;0.90;0.30;;;22.00;76.10;;;;;;5063115;28;20146;-79
2022/09/08 12:59:39;;;;;;;2.70;0.32;;;22.00;75.70;;;;;;5057434;28;20119;-78
2022/09/08 13:02:42;;;;;;;0.70;0.30;;;21.90;76.10;;;;;;5084179;28;20066;-77
2022/09/08 13:05:22;;;;;;;1.23;0.30;;;21.90;76.30;;;;;;5074743;28;20279;-80
2022/09/08 13:08:20;;;;;;;1.58;0.20;;;21.90;76.10;;;;;;5055583;28;20044;-80
2022/09/08 13:10:51;;;;;;;1.38;0.30;;;21.90;76.00;;;;;;5066015;28;20475;-79
2022/09/08 13:13:33;;;;;;;2.13;0.40;;;21.80;75.60;;;;;;5093759;28;20036;-79
2022/09/08 13:16:11;;;;;;;2.03;0.40;;;21.70;73.80;;;;;;5074681;28;20035;-79
2022/09/08 13:19:16;;;;;;;2.42;0.50;;;21.70;73.30;;;;;;5083649;28;20039;-80
2022/09/08 13:22:21;;;;;;;1.73;0.35;;;21.70;72.30;;;;;;5056671;28;20412;-80
2022/09/08 13:25:15;;;;;;;1.25;0.25;;;21.70;72.20;;;;;;5056459;28;20412;-78
2022/09/08 13:28:09;;;;;;;1.50;0.45;;;21.70;71.50;;;;;;5057411;28;20052;-79
2022/09/08 13:30:50;;;;;;;2.25;0.57;;;21.70;71.40;;;;;;5068063;28;20119;-82
2022/09/08 13:33:38;;;;;;;1.92;0.20;;;21.70;71.40;;;;;;5068788;28;20040;-81
2022/09/08 13:36:23;;;;;;;1.73;0.20;;;21.90;71.70;;;;;;5041792;28;20059;-80
2022/09/08 13:39:10;;;;;;;1.67;0.30;;;22.10;71.80;;;;;;5050728;28;20045;-81
2022/09/08 13:42:06;;;;;;;1.23;0.65;;;22.20;71.30;;;;;;5068426;28;20056;-81
2022/09/08 13:44:50;;;;;;;1.13;0.38;;;22.30;71.30;;;;;;5059592;28;20084;-80
2022/09/08 13:47:48;;;;;;;1.58;0.30;;;22.30;71.20;;;;;;5065053;28;20129;-82
2022/09/08 13:50:25;;;;;;;1.33;0.40;;;22.30;70.60;;;;;;5044423;28;20056;-81
2022/09/08 13:52:55;;;;;;;1.60;0.40;;;22.30;69.40;;;;;;5061543;28;20055;-81
2022/09/08 13:56:01;;;;;;;2.65;0.45;;;22.40;69.70;;;;;;5058104;28;20131;-81